aviador You're here:

KAOO Decoded Metar

ALTOONA in PA, USA
Report Time2017-03-23 03:53:00
UTC Time2017-03-23 04:19:49
Flight Rules vfr VFR
Wind360° at 10 kt
W.Decomp.*RWY 03: 9.4 kt HW 3.4 kt LCW
RWY 30: 3.4 kt HW 9.4 kt RCW
Visibility9999 m
Phenomena:N/A
Clouds:N/A
Expected CloudBase > 5,200 ft AGL from Temp-Dew spread
CeilingNone
Temp-3°C (ISA -15)
Dew Point-16°C (36% RH)
AAT-10.0°C
QNH1031 hPa
Density Alt-932 ft
Elevation1,493 ft
Report Wrong Elevation
Raw Report
KAOO 230353Z AUTO 36010KT 10SM CLR M03/M16 A3044=

Extra information for KAOO:More info

Metar Taf Metar & Taf Last 4 Metars F.Rules Stats Wind Profile Meteogram Temp Stats Airport Information Weather charts Add Link Nearby VenuesMetar ALERT Operation Metar Decoded Social comments

AIRNAV info for KAOO